EPPO

Poznań-Ławica Airport

Poznań, Poland
METAR EPPO 172100Z 29003KT 4000 BR FEW013 BKN044 M01/M02 Q1022 R10/290095
Observed Flight Rules
Dec-17 @ 21:00 UTC (19 minutes ago) Instrument Flight Rules
Wind Visibility Clouds Conditions
290° at 3 knots 4,007 meters
  • Few at 1,300' AGL
  • Broken at 4,400' AGL
  • Mist
Temperatures Readings
Current -1°C / 30°F
Dewpoint -2°C / 28°F
Humidity 93%
Altimeter 30.18" Hg
Pressure 1022 hPa
Elevation 92
METAR EPPO 172100Z 29003KT 4000 BR FEW013 BKN044 M01/M02 Q1022 R10/290095
Observed Flight Rules
Dec-17 @ 21:00 UTC
(19 minutes ago)
IFR
Wind Visibility
290° at 3 knots 4,007 meters
Clouds
  • Few at 1,300' AGL
  • Broken at 4,400' AGL
Conditions
  • Mist
Temperature Dewpoint
-1°C / 30°F -2°C / 28°F
Humidity Altimeter Pressure
93% 30.18" Hg 1022 hPa